sensor_id;sensor_type;location;lat;lon;timestamp;P1;durP1;ratioP1;P2;durP2;ratioP2
55065;SDS011;40964;42.114;24.220;2023-03-13T00:00:51;9.05;;;5.03;;
55065;SDS011;40964;42.114;24.220;2023-03-13T00:03:18;3.40;;;2.13;;
55065;SDS011;40964;42.114;24.220;2023-03-13T00:05:43;3.30;;;1.95;;
55065;SDS011;40964;42.114;24.220;2023-03-13T00:08:08;4.78;;;1.65;;
55065;SDS011;40964;42.114;24.220;2023-03-13T00:10:37;18.92;;;5.68;;
55065;SDS011;40964;42.114;24.220;2023-03-13T00:13:04;18.45;;;6.50;;
55065;SDS011;40964;42.114;24.220;2023-03-13T00:15:30;30.65;;;9.65;;
55065;SDS011;40964;42.114;24.220;2023-03-13T00:17:56;30.48;;;10.52;;
55065;SDS011;40964;42.114;24.220;2023-03-13T00:20:21;21.92;;;8.02;;
55065;SDS011;40964;42.114;24.220;2023-03-13T00:22:47;13.20;;;4.82;;
55065;SDS011;40964;42.114;24.220;2023-03-13T00:25:12;11.55;;;4.55;;
55065;SDS011;40964;42.114;24.220;2023-03-13T00:27:38;10.93;;;3.85;;
55065;SDS011;40964;42.114;24.220;2023-03-13T00:30:03;2.97;;;2.28;;
55065;SDS011;40964;42.114;24.220;2023-03-13T00:32:29;3.50;;;2.05;;
55065;SDS011;40964;42.114;24.220;2023-03-13T00:34:54;3.30;;;1.60;;
55065;SDS011;40964;42.114;24.220;2023-03-13T00:37:20;4.80;;;2.00;;
55065;SDS011;40964;42.114;24.220;2023-03-13T00:39:45;3.70;;;1.90;;
55065;SDS011;40964;42.114;24.220;2023-03-13T00:42:11;6.03;;;2.70;;
55065;SDS011;40964;42.114;24.220;2023-03-13T00:44:36;3.63;;;2.35;;
55065;SDS011;40964;42.114;24.220;2023-03-13T00:47:02;3.97;;;2.53;;
55065;SDS011;40964;42.114;24.220;2023-03-13T00:49:29;3.28;;;2.05;;
55065;SDS011;40964;42.114;24.220;2023-03-13T00:51:55;2.13;;;1.88;;
55065;SDS011;40964;42.114;24.220;2023-03-13T00:54:21;6.30;;;2.50;;
55065;SDS011;40964;42.114;24.220;2023-03-13T00:56:46;5.13;;;2.65;;
55065;SDS011;40964;42.114;24.220;2023-03-13T00:59:12;10.60;;;4.43;;
55065;SDS011;40964;42.114;24.220;2023-03-13T01:01:39;5.80;;;3.55;;
55065;SDS011;40964;42.114;24.220;2023-03-13T01:04:05;4.28;;;2.10;;
55065;SDS011;40964;42.114;24.220;2023-03-13T01:06:34;2.85;;;2.20;;
55065;SDS011;40964;42.114;24.220;2023-03-13T01:09:02;4.50;;;2.17;;
55065;SDS011;40964;42.114;24.220;2023-03-13T01:11:30;2.40;;;1.83;;
55065;SDS011;40964;42.114;24.220;2023-03-13T01:13:59;9.85;;;2.47;;
55065;SDS011;40964;42.114;24.220;2023-03-13T01:16:28;3.83;;;2.35;;
55065;SDS011;40964;42.114;24.220;2023-03-13T01:18:56;4.15;;;2.17;;
55065;SDS011;40964;42.114;24.220;2023-03-13T01:21:24;7.93;;;2.90;;
55065;SDS011;40964;42.114;24.220;2023-03-13T01:23:50;3.05;;;2.15;;
55065;SDS011;40964;42.114;24.220;2023-03-13T01:26:17;2.83;;;1.83;;
55065;SDS011;40964;42.114;24.220;2023-03-13T01:28:43;3.00;;;1.92;;
55065;SDS011;40964;42.114;24.220;2023-03-13T01:31:13;5.22;;;2.63;;
55065;SDS011;40964;42.114;24.220;2023-03-13T01:33:42;4.93;;;2.13;;
55065;SDS011;40964;42.114;24.220;2023-03-13T01:36:09;3.65;;;1.80;;
55065;SDS011;40964;42.114;24.220;2023-03-13T01:38:36;3.47;;;1.85;;
55065;SDS011;40964;42.114;24.220;2023-03-13T01:41:02;2.10;;;1.75;;
55065;SDS011;40964;42.114;24.220;2023-03-13T01:43:29;4.32;;;1.73;;
55065;SDS011;40964;42.114;24.220;2023-03-13T01:48:26;4.72;;;2.28;;
55065;SDS011;40964;42.114;24.220;2023-03-13T01:51:04;51.33;;;16.55;;
55065;SDS011;40964;42.114;24.220;2023-03-13T01:53:33;13.00;;;5.63;;
55065;SDS011;40964;42.114;24.220;2023-03-13T01:56:00;5.97;;;2.60;;
55065;SDS011;40964;42.114;24.220;2023-03-13T01:58:29;4.63;;;2.58;;
55065;SDS011;40964;42.114;24.220;2023-03-13T02:00:55;3.63;;;1.95;;
55065;SDS011;40964;42.114;24.220;2023-03-13T02:03:21;4.60;;;2.03;;
55065;SDS011;40964;42.114;24.220;2023-03-13T02:05:48;2.80;;;1.98;;
55065;SDS011;40964;42.114;24.220;2023-03-13T02:08:18;6.70;;;3.30;;
55065;SDS011;40964;42.114;24.220;2023-03-13T02:10:54;5.57;;;2.80;;
55065;SDS011;40964;42.114;24.220;2023-03-13T02:13:25;5.85;;;2.95;;
55065;SDS011;40964;42.114;24.220;2023-03-13T02:15:53;4.18;;;2.97;;
55065;SDS011;40964;42.114;24.220;2023-03-13T02:18:18;5.72;;;2.72;;
55065;SDS011;40964;42.114;24.220;2023-03-13T02:20:44;3.92;;;2.58;;
55065;SDS011;40964;42.114;24.220;2023-03-13T02:23:13;3.75;;;2.17;;
55065;SDS011;40964;42.114;24.220;2023-03-13T02:25:51;4.35;;;2.13;;
55065;SDS011;40964;42.114;24.220;2023-03-13T02:30:54;3.38;;;1.98;;
55065;SDS011;40964;42.114;24.220;2023-03-13T02:33:21;5.00;;;2.75;;
55065;SDS011;40964;42.114;24.220;2023-03-13T02:35:50;3.85;;;2.58;;
55065;SDS011;40964;42.114;24.220;2023-03-13T02:38:22;4.97;;;2.58;;
55065;SDS011;40964;42.114;24.220;2023-03-13T02:40:49;5.72;;;2.53;;
55065;SDS011;40964;42.114;24.220;2023-03-13T02:43:19;3.25;;;2.58;;
55065;SDS011;40964;42.114;24.220;2023-03-13T02:46:00;17.92;;;5.90;;
55065;SDS011;40964;42.114;24.220;2023-03-13T02:48:32;26.77;;;10.02;;
55065;SDS011;40964;42.114;24.220;2023-03-13T02:51:01;27.73;;;11.82;;
55065;SDS011;40964;42.114;24.220;2023-03-13T02:53:28;24.27;;;11.82;;
55065;SDS011;40964;42.114;24.220;2023-03-13T02:55:54;14.02;;;6.75;;
55065;SDS011;40964;42.114;24.220;2023-03-13T02:58:22;16.00;;;7.28;;
55065;SDS011;40964;42.114;24.220;2023-03-13T03:00:48;8.65;;;4.55;;
55065;SDS011;40964;42.114;24.220;2023-03-13T03:03:14;4.90;;;3.03;;
55065;SDS011;40964;42.114;24.220;2023-03-13T03:05:39;5.00;;;2.47;;
55065;SDS011;40964;42.114;24.220;2023-03-13T03:08:05;2.80;;;1.80;;
55065;SDS011;40964;42.114;24.220;2023-03-13T03:10:30;3.70;;;2.15;;
55065;SDS011;40964;42.114;24.220;2023-03-13T03:12:56;5.55;;;3.40;;
55065;SDS011;40964;42.114;24.220;2023-03-13T03:15:21;4.88;;;3.08;;
55065;SDS011;40964;42.114;24.220;2023-03-13T03:17:47;4.95;;;3.00;;
55065;SDS011;40964;42.114;24.220;2023-03-13T03:20:13;5.70;;;2.65;;
55065;SDS011;40964;42.114;24.220;2023-03-13T03:22:38;3.88;;;2.67;;
55065;SDS011;40964;42.114;24.220;2023-03-13T03:25:07;3.35;;;2.42;;
55065;SDS011;40964;42.114;24.220;2023-03-13T03:27:33;3.45;;;1.95;;
55065;SDS011;40964;42.114;24.220;2023-03-13T03:30:00;3.10;;;2.33;;
55065;SDS011;40964;42.114;24.220;2023-03-13T03:32:26;3.47;;;1.90;;
55065;SDS011;40964;42.114;24.220;2023-03-13T03:34:52;3.90;;;2.03;;
55065;SDS011;40964;42.114;24.220;2023-03-13T03:37:17;3.72;;;2.50;;
55065;SDS011;40964;42.114;24.220;2023-03-13T03:39:43;4.38;;;2.38;;
55065;SDS011;40964;42.114;24.220;2023-03-13T03:42:08;4.85;;;2.08;;
55065;SDS011;40964;42.114;24.220;2023-03-13T03:44:33;4.43;;;2.30;;
55065;SDS011;40964;42.114;24.220;2023-03-13T03:46:59;4.28;;;2.55;;
55065;SDS011;40964;42.114;24.220;2023-03-13T03:49:24;5.93;;;2.03;;
55065;SDS011;40964;42.114;24.220;2023-03-13T03:51:50;5.00;;;2.28;;
55065;SDS011;40964;42.114;24.220;2023-03-13T03:54:15;5.05;;;2.55;;
55065;SDS011;40964;42.114;24.220;2023-03-13T03:56:41;4.45;;;2.40;;
55065;SDS011;40964;42.114;24.220;2023-03-13T03:59:06;3.88;;;2.72;;
55065;SDS011;40964;42.114;24.220;2023-03-13T04:01:32;5.40;;;2.63;;
55065;SDS011;40964;42.114;24.220;2023-03-13T04:06:32;4.18;;;2.17;;
55065;SDS011;40964;42.114;24.220;2023-03-13T04:08:58;3.25;;;1.85;;
55065;SDS011;40964;42.114;24.220;2023-03-13T04:11:23;2.83;;;2.25;;
55065;SDS011;40964;42.114;24.220;2023-03-13T04:13:48;4.57;;;2.20;;
55065;SDS011;40964;42.114;24.220;2023-03-13T04:16:14;4.72;;;2.63;;
55065;SDS011;40964;42.114;24.220;2023-03-13T04:18:39;3.88;;;2.70;;
55065;SDS011;40964;42.114;24.220;2023-03-13T04:21:05;5.40;;;2.70;;
55065;SDS011;40964;42.114;24.220;2023-03-13T04:23:30;5.72;;;2.45;;
55065;SDS011;40964;42.114;24.220;2023-03-13T04:25:56;9.98;;;2.90;;
55065;SDS011;40964;42.114;24.220;2023-03-13T04:28:21;5.20;;;2.97;;
55065;SDS011;40964;42.114;24.220;2023-03-13T04:30:47;9.85;;;2.60;;
55065;SDS011;40964;42.114;24.220;2023-03-13T04:33:12;7.50;;;4.00;;
55065;SDS011;40964;42.114;24.220;2023-03-13T04:35:38;6.97;;;3.55;;
55065;SDS011;40964;42.114;24.220;2023-03-13T04:38:03;6.00;;;2.75;;
55065;SDS011;40964;42.114;24.220;2023-03-13T04:40:29;6.50;;;2.83;;
55065;SDS011;40964;42.114;24.220;2023-03-13T04:42:54;13.32;;;4.35;;
55065;SDS011;40964;42.114;24.220;2023-03-13T04:45:19;9.57;;;4.18;;
55065;SDS011;40964;42.114;24.220;2023-03-13T04:47:45;8.55;;;4.28;;
55065;SDS011;40964;42.114;24.220;2023-03-13T04:50:11;6.75;;;3.00;;
55065;SDS011;40964;42.114;24.220;2023-03-13T04:52:37;4.93;;;2.63;;
55065;SDS011;40964;42.114;24.220;2023-03-13T04:55:02;5.15;;;2.80;;
55065;SDS011;40964;42.114;24.220;2023-03-13T04:57:28;6.55;;;3.30;;
55065;SDS011;40964;42.114;24.220;2023-03-13T04:59:54;8.25;;;4.10;;
55065;SDS011;40964;42.114;24.220;2023-03-13T05:02:19;7.15;;;3.60;;
55065;SDS011;40964;42.114;24.220;2023-03-13T05:04:45;8.80;;;4.65;;
55065;SDS011;40964;42.114;24.220;2023-03-13T05:07:10;5.95;;;3.75;;
55065;SDS011;40964;42.114;24.220;2023-03-13T05:09:35;8.73;;;3.35;;
55065;SDS011;40964;42.114;24.220;2023-03-13T05:12:01;5.78;;;3.10;;
55065;SDS011;40964;42.114;24.220;2023-03-13T05:14:26;6.15;;;3.10;;
55065;SDS011;40964;42.114;24.220;2023-03-13T05:16:52;7.70;;;4.00;;
55065;SDS011;40964;42.114;24.220;2023-03-13T05:19:17;34.03;;;11.43;;
55065;SDS011;40964;42.114;24.220;2023-03-13T05:21:43;30.42;;;13.68;;
55065;SDS011;40964;42.114;24.220;2023-03-13T05:24:08;15.13;;;7.22;;
55065;SDS011;40964;42.114;24.220;2023-03-13T05:26:33;6.45;;;3.75;;
55065;SDS011;40964;42.114;24.220;2023-03-13T05:28:59;8.18;;;3.72;;
55065;SDS011;40964;42.114;24.220;2023-03-13T05:31:24;6.80;;;3.58;;
55065;SDS011;40964;42.114;24.220;2023-03-13T05:33:50;8.48;;;4.25;;
55065;SDS011;40964;42.114;24.220;2023-03-13T05:36:15;8.52;;;4.63;;
55065;SDS011;40964;42.114;24.220;2023-03-13T05:38:41;9.25;;;4.78;;
55065;SDS011;40964;42.114;24.220;2023-03-13T05:41:06;7.07;;;3.92;;
55065;SDS011;40964;42.114;24.220;2023-03-13T05:43:31;7.72;;;4.47;;
55065;SDS011;40964;42.114;24.220;2023-03-13T05:45:57;11.75;;;4.25;;
55065;SDS011;40964;42.114;24.220;2023-03-13T05:48:22;9.55;;;4.65;;
55065;SDS011;40964;42.114;24.220;2023-03-13T05:50:48;5.95;;;3.38;;
55065;SDS011;40964;42.114;24.220;2023-03-13T05:53:13;8.10;;;4.13;;
55065;SDS011;40964;42.114;24.220;2023-03-13T05:55:38;6.53;;;3.75;;
55065;SDS011;40964;42.114;24.220;2023-03-13T05:58:04;7.78;;;4.80;;
55065;SDS011;40964;42.114;24.220;2023-03-13T06:00:29;8.75;;;4.32;;
55065;SDS011;40964;42.114;24.220;2023-03-13T06:02:55;8.52;;;4.13;;
55065;SDS011;40964;42.114;24.220;2023-03-13T06:05:20;7.72;;;4.72;;
55065;SDS011;40964;42.114;24.220;2023-03-13T06:07:46;7.28;;;4.20;;
55065;SDS011;40964;42.114;24.220;2023-03-13T06:10:14;9.13;;;3.95;;
55065;SDS011;40964;42.114;24.220;2023-03-13T06:12:39;8.05;;;4.35;;
55065;SDS011;40964;42.114;24.220;2023-03-13T06:15:05;8.05;;;4.95;;
55065;SDS011;40964;42.114;24.220;2023-03-13T06:17:31;6.97;;;4.20;;
55065;SDS011;40964;42.114;24.220;2023-03-13T06:19:56;8.32;;;4.38;;
55065;SDS011;40964;42.114;24.220;2023-03-13T06:22:22;8.23;;;4.35;;
55065;SDS011;40964;42.114;24.220;2023-03-13T06:24:47;7.47;;;4.35;;
55065;SDS011;40964;42.114;24.220;2023-03-13T06:27:13;9.35;;;4.63;;
55065;SDS011;40964;42.114;24.220;2023-03-13T06:29:39;6.63;;;3.97;;
55065;SDS011;40964;42.114;24.220;2023-03-13T06:32:05;7.28;;;3.67;;
55065;SDS011;40964;42.114;24.220;2023-03-13T06:34:30;9.48;;;4.30;;
55065;SDS011;40964;42.114;24.220;2023-03-13T06:36:56;6.35;;;4.05;;
55065;SDS011;40964;42.114;24.220;2023-03-13T06:39:22;7.47;;;3.95;;
55065;SDS011;40964;42.114;24.220;2023-03-13T06:41:48;8.32;;;4.50;;
55065;SDS011;40964;42.114;24.220;2023-03-13T06:44:14;9.98;;;4.38;;
55065;SDS011;40964;42.114;24.220;2023-03-13T06:46:39;9.23;;;4.60;;
55065;SDS011;40964;42.114;24.220;2023-03-13T06:49:04;5.93;;;3.63;;
55065;SDS011;40964;42.114;24.220;2023-03-13T06:51:30;6.47;;;3.78;;
55065;SDS011;40964;42.114;24.220;2023-03-13T06:53:56;5.85;;;4.05;;
55065;SDS011;40964;42.114;24.220;2023-03-13T06:56:21;8.05;;;4.25;;
55065;SDS011;40964;42.114;24.220;2023-03-13T06:58:47;9.25;;;4.95;;
55065;SDS011;40964;42.114;24.220;2023-03-13T07:01:14;8.05;;;3.80;;
55065;SDS011;40964;42.114;24.220;2023-03-13T07:03:41;8.60;;;3.38;;
55065;SDS011;40964;42.114;24.220;2023-03-13T07:06:08;4.05;;;2.97;;
55065;SDS011;40964;42.114;24.220;2023-03-13T07:08:36;5.78;;;3.30;;
55065;SDS011;40964;42.114;24.220;2023-03-13T07:11:03;7.20;;;3.70;;
55065;SDS011;40964;42.114;24.220;2023-03-13T07:13:33;5.07;;;3.47;;
55065;SDS011;40964;42.114;24.220;2023-03-13T07:16:03;6.32;;;4.15;;
55065;SDS011;40964;42.114;24.220;2023-03-13T07:18:30;5.63;;;3.20;;
55065;SDS011;40964;42.114;24.220;2023-03-13T07:20:57;4.13;;;3.05;;
55065;SDS011;40964;42.114;24.220;2023-03-13T07:23:25;3.83;;;2.95;;
55065;SDS011;40964;42.114;24.220;2023-03-13T07:25:54;6.22;;;2.97;;
55065;SDS011;40964;42.114;24.220;2023-03-13T07:28:22;5.95;;;3.10;;
55065;SDS011;40964;42.114;24.220;2023-03-13T07:30:48;5.50;;;3.13;;
55065;SDS011;40964;42.114;24.220;2023-03-13T07:33:14;6.57;;;3.80;;
55065;SDS011;40964;42.114;24.220;2023-03-13T07:35:45;5.38;;;2.83;;
55065;SDS011;40964;42.114;24.220;2023-03-13T07:38:12;6.45;;;3.53;;
55065;SDS011;40964;42.114;24.220;2023-03-13T07:40:37;6.03;;;2.88;;
55065;SDS011;40964;42.114;24.220;2023-03-13T07:43:03;5.13;;;3.17;;
55065;SDS011;40964;42.114;24.220;2023-03-13T07:45:28;4.95;;;2.97;;
55065;SDS011;40964;42.114;24.220;2023-03-13T07:47:53;6.00;;;3.42;;
55065;SDS011;40964;42.114;24.220;2023-03-13T07:50:19;5.10;;;3.22;;
55065;SDS011;40964;42.114;24.220;2023-03-13T07:52:44;4.65;;;3.22;;
55065;SDS011;40964;42.114;24.220;2023-03-13T07:55:10;8.77;;;3.28;;
55065;SDS011;40964;42.114;24.220;2023-03-13T07:57:35;5.07;;;2.83;;
55065;SDS011;40964;42.114;24.220;2023-03-13T08:00:00;6.15;;;3.55;;
55065;SDS011;40964;42.114;24.220;2023-03-13T08:02:26;8.77;;;4.03;;
55065;SDS011;40964;42.114;24.220;2023-03-13T08:04:51;6.20;;;3.90;;
55065;SDS011;40964;42.114;24.220;2023-03-13T08:07:17;7.03;;;3.17;;
55065;SDS011;40964;42.114;24.220;2023-03-13T08:09:43;5.57;;;3.22;;
55065;SDS011;40964;42.114;24.220;2023-03-13T08:12:08;4.63;;;3.30;;
55065;SDS011;40964;42.114;24.220;2023-03-13T08:14:34;5.65;;;3.45;;
55065;SDS011;40964;42.114;24.220;2023-03-13T08:16:59;6.97;;;3.60;;
55065;SDS011;40964;42.114;24.220;2023-03-13T08:19:24;9.25;;;3.40;;
55065;SDS011;40964;42.114;24.220;2023-03-13T08:21:50;5.45;;;3.47;;
55065;SDS011;40964;42.114;24.220;2023-03-13T08:24:15;4.82;;;3.40;;
55065;SDS011;40964;42.114;24.220;2023-03-13T08:26:41;7.95;;;3.42;;
55065;SDS011;40964;42.114;24.220;2023-03-13T08:29:10;7.72;;;3.70;;
55065;SDS011;40964;42.114;24.220;2023-03-13T08:31:43;7.05;;;3.67;;
55065;SDS011;40964;42.114;24.220;2023-03-13T08:34:11;6.32;;;3.50;;
55065;SDS011;40964;42.114;24.220;2023-03-13T08:36:37;5.43;;;3.50;;
55065;SDS011;40964;42.114;24.220;2023-03-13T08:39:05;4.70;;;3.03;;
55065;SDS011;40964;42.114;24.220;2023-03-13T08:41:34;8.45;;;3.50;;
55065;SDS011;40964;42.114;24.220;2023-03-13T08:44:01;4.32;;;3.13;;
55065;SDS011;40964;42.114;24.220;2023-03-13T08:46:31;6.03;;;3.42;;
55065;SDS011;40964;42.114;24.220;2023-03-13T08:48:58;5.97;;;3.53;;
55065;SDS011;40964;42.114;24.220;2023-03-13T08:51:25;6.75;;;3.55;;
55065;SDS011;40964;42.114;24.220;2023-03-13T08:53:52;4.30;;;3.00;;
55065;SDS011;40964;42.114;24.220;2023-03-13T08:56:19;4.75;;;2.65;;
55065;SDS011;40964;42.114;24.220;2023-03-13T08:58:49;5.05;;;3.10;;
55065;SDS011;40964;42.114;24.220;2023-03-13T09:01:15;3.63;;;2.88;;
55065;SDS011;40964;42.114;24.220;2023-03-13T09:03:41;3.53;;;2.95;;
55065;SDS011;40964;42.114;24.220;2023-03-13T09:06:08;4.80;;;2.80;;
55065;SDS011;40964;42.114;24.220;2023-03-13T09:08:34;4.68;;;3.08;;
55065;SDS011;40964;42.114;24.220;2023-03-13T09:11:01;2.83;;;2.15;;
55065;SDS011;40964;42.114;24.220;2023-03-13T09:13:30;5.00;;;3.40;;
55065;SDS011;40964;42.114;24.220;2023-03-13T09:15:58;3.75;;;2.58;;
55065;SDS011;40964;42.114;24.220;2023-03-13T09:18:25;4.80;;;2.83;;
55065;SDS011;40964;42.114;24.220;2023-03-13T09:20:52;7.70;;;3.00;;
55065;SDS011;40964;42.114;24.220;2023-03-13T09:23:18;4.63;;;3.63;;
55065;SDS011;40964;42.114;24.220;2023-03-13T09:25:44;4.53;;;3.33;;
55065;SDS011;40964;42.114;24.220;2023-03-13T09:28:10;4.82;;;3.03;;
55065;SDS011;40964;42.114;24.220;2023-03-13T09:30:35;4.60;;;3.22;;
55065;SDS011;40964;42.114;24.220;2023-03-13T09:33:01;6.90;;;3.45;;
55065;SDS011;40964;42.114;24.220;2023-03-13T09:35:26;4.82;;;3.55;;
55065;SDS011;40964;42.114;24.220;2023-03-13T09:37:52;4.32;;;2.83;;
55065;SDS011;40964;42.114;24.220;2023-03-13T09:40:18;3.63;;;2.90;;
55065;SDS011;40964;42.114;24.220;2023-03-13T09:45:20;4.15;;;2.78;;
55065;SDS011;40964;42.114;24.220;2023-03-13T09:47:49;3.60;;;2.85;;
55065;SDS011;40964;42.114;24.220;2023-03-13T09:50:20;6.07;;;3.05;;
55065;SDS011;40964;42.114;24.220;2023-03-13T09:52:56;4.10;;;2.75;;
55065;SDS011;40964;42.114;24.220;2023-03-13T09:55:29;4.45;;;3.30;;
55065;SDS011;40964;42.114;24.220;2023-03-13T09:58:10;3.53;;;2.55;;
55065;SDS011;40964;42.114;24.220;2023-03-13T10:00:42;4.25;;;2.67;;
55065;SDS011;40964;42.114;24.220;2023-03-13T10:03:19;3.53;;;3.00;;
55065;SDS011;40964;42.114;24.220;2023-03-13T10:06:00;3.40;;;2.40;;
55065;SDS011;40964;42.114;24.220;2023-03-13T10:08:30;3.67;;;2.47;;
55065;SDS011;40964;42.114;24.220;2023-03-13T10:14:20;3.28;;;2.55;;
55065;SDS011;40964;42.114;24.220;2023-03-13T10:17:01;4.22;;;2.78;;
55065;SDS011;40964;42.114;24.220;2023-03-13T10:19:34;4.95;;;3.42;;
55065;SDS011;40964;42.114;24.220;2023-03-13T10:22:03;4.97;;;3.10;;
55065;SDS011;40964;42.114;24.220;2023-03-13T10:24:41;4.72;;;2.70;;
55065;SDS011;40964;42.114;24.220;2023-03-13T10:27:47;5.05;;;3.20;;
55065;SDS011;40964;42.114;24.220;2023-03-13T10:30:32;4.07;;;2.78;;
55065;SDS011;40964;42.114;24.220;2023-03-13T10:35:42;3.30;;;2.40;;
55065;SDS011;40964;42.114;24.220;2023-03-13T10:38:12;5.80;;;3.55;;
55065;SDS011;40964;42.114;24.220;2023-03-13T10:40:38;4.35;;;3.08;;
55065;SDS011;40964;42.114;24.220;2023-03-13T10:43:16;6.32;;;3.10;;
55065;SDS011;40964;42.114;24.220;2023-03-13T10:45:43;5.15;;;3.25;;
55065;SDS011;40964;42.114;24.220;2023-03-13T10:48:11;4.30;;;3.17;;
55065;SDS011;40964;42.114;24.220;2023-03-13T10:50:40;5.45;;;3.30;;
55065;SDS011;40964;42.114;24.220;2023-03-13T10:53:52;6.32;;;3.30;;
55065;SDS011;40964;42.114;24.220;2023-03-13T10:58:50;6.70;;;3.10;;
55065;SDS011;40964;42.114;24.220;2023-03-13T11:01:24;4.88;;;3.22;;
55065;SDS011;40964;42.114;24.220;2023-03-13T11:03:56;4.25;;;2.78;;
55065;SDS011;40964;42.114;24.220;2023-03-13T11:09:01;4.67;;;3.10;;
55065;SDS011;40964;42.114;24.220;2023-03-13T11:11:28;4.43;;;2.72;;
55065;SDS011;40964;42.114;24.220;2023-03-13T11:13:55;5.43;;;3.75;;
55065;SDS011;40964;42.114;24.220;2023-03-13T11:16:32;4.40;;;2.80;;
55065;SDS011;40964;42.114;24.220;2023-03-13T11:24:37;4.70;;;3.33;;
55065;SDS011;40964;42.114;24.220;2023-03-13T11:30:37;7.68;;;5.03;;
55065;SDS011;40964;42.114;24.220;2023-03-13T11:35:44;7.55;;;3.08;;
55065;SDS011;40964;42.114;24.220;2023-03-13T11:43:24;3.85;;;3.10;;
55065;SDS011;40964;42.114;24.220;2023-03-13T11:52:05;6.18;;;3.88;;
55065;SDS011;40964;42.114;24.220;2023-03-13T12:02:41;5.57;;;3.55;;
55065;SDS011;40964;42.114;24.220;2023-03-13T12:05:14;4.80;;;3.47;;
55065;SDS011;40964;42.114;24.220;2023-03-13T12:12:50;4.90;;;3.17;;
55065;SDS011;40964;42.114;24.220;2023-03-13T12:15:24;3.80;;;3.00;;
55065;SDS011;40964;42.114;24.220;2023-03-13T12:18:04;4.63;;;3.47;;
55065;SDS011;40964;42.114;24.220;2023-03-13T12:26:12;7.57;;;3.38;;
55065;SDS011;40964;42.114;24.220;2023-03-13T12:39:50;6.60;;;3.88;;
55065;SDS011;40964;42.114;24.220;2023-03-13T12:45:19;4.90;;;3.60;;
55065;SDS011;40964;42.114;24.220;2023-03-13T12:59:04;4.57;;;3.42;;
55065;SDS011;40964;42.114;24.220;2023-03-13T13:01:36;5.80;;;3.88;;
55065;SDS011;40964;42.114;24.220;2023-03-13T13:04:06;9.15;;;4.22;;
55065;SDS011;40964;42.114;24.220;2023-03-13T13:12:34;4.30;;;3.38;;
55065;SDS011;40964;42.114;24.220;2023-03-13T13:17:53;5.45;;;3.70;;
55065;SDS011;40964;42.114;24.220;2023-03-13T13:22:54;7.47;;;3.88;;
55065;SDS011;40964;42.114;24.220;2023-03-13T13:30:36;7.85;;;4.55;;
55065;SDS011;40964;42.114;24.220;2023-03-13T13:35:43;5.00;;;3.47;;
55065;SDS011;40964;42.114;24.220;2023-03-13T13:43:42;8.00;;;4.57;;
55065;SDS011;40964;42.114;24.220;2023-03-13T13:51:35;7.32;;;3.70;;
55065;SDS011;40964;42.114;24.220;2023-03-13T13:54:02;7.40;;;4.40;;
55065;SDS011;40964;42.114;24.220;2023-03-13T14:01:44;11.60;;;4.85;;
55065;SDS011;40964;42.114;24.220;2023-03-13T14:04:12;6.72;;;3.85;;
55065;SDS011;40964;42.114;24.220;2023-03-13T14:06:41;7.75;;;4.25;;
55065;SDS011;40964;42.114;24.220;2023-03-13T14:09:19;6.60;;;4.03;;
55065;SDS011;40964;42.114;24.220;2023-03-13T14:11:47;6.88;;;3.70;;
55065;SDS011;40964;42.114;24.220;2023-03-13T14:17:03;4.95;;;3.58;;
55065;SDS011;40964;42.114;24.220;2023-03-13T14:19:38;6.28;;;4.30;;
55065;SDS011;40964;42.114;24.220;2023-03-13T14:22:10;6.95;;;3.88;;
55065;SDS011;40964;42.114;24.220;2023-03-13T14:24:38;24.23;;;10.35;;
55065;SDS011;40964;42.114;24.220;2023-03-13T14:27:15;8.00;;;4.70;;
55065;SDS011;40964;42.114;24.220;2023-03-13T14:30:03;9.27;;;4.85;;
55065;SDS011;40964;42.114;24.220;2023-03-13T14:32:31;11.35;;;4.90;;
55065;SDS011;40964;42.114;24.220;2023-03-13T14:34:56;8.77;;;5.93;;
55065;SDS011;40964;42.114;24.220;2023-03-13T14:37:33;6.60;;;4.55;;
55065;SDS011;40964;42.114;24.220;2023-03-13T14:40:15;6.72;;;3.92;;
55065;SDS011;40964;42.114;24.220;2023-03-13T14:42:47;5.90;;;3.72;;
55065;SDS011;40964;42.114;24.220;2023-03-13T14:45:15;5.57;;;3.60;;
55065;SDS011;40964;42.114;24.220;2023-03-13T14:47:46;6.45;;;4.28;;
55065;SDS011;40964;42.114;24.220;2023-03-13T14:50:15;6.60;;;4.32;;
55065;SDS011;40964;42.114;24.220;2023-03-13T14:52:46;6.65;;;3.70;;
55065;SDS011;40964;42.114;24.220;2023-03-13T15:05:47;6.32;;;4.03;;
55065;SDS011;40964;42.114;24.220;2023-03-13T15:08:25;9.68;;;4.50;;
55065;SDS011;40964;42.114;24.220;2023-03-13T15:10:51;9.88;;;4.82;;
55065;SDS011;40964;42.114;24.220;2023-03-13T15:13:23;8.07;;;4.80;;
55065;SDS011;40964;42.114;24.220;2023-03-13T15:15:52;7.70;;;4.43;;
55065;SDS011;40964;42.114;24.220;2023-03-13T15:20:51;8.70;;;4.15;;
55065;SDS011;40964;42.114;24.220;2023-03-13T15:25:44;8.98;;;4.95;;
55065;SDS011;40964;42.114;24.220;2023-03-13T15:28:28;13.63;;;7.53;;
55065;SDS011;40964;42.114;24.220;2023-03-13T15:30:53;10.50;;;6.05;;
55065;SDS011;40964;42.114;24.220;2023-03-13T15:33:19;13.68;;;7.32;;
55065;SDS011;40964;42.114;24.220;2023-03-13T15:35:47;6.70;;;4.38;;
55065;SDS011;40964;42.114;24.220;2023-03-13T15:38:18;11.32;;;5.32;;
55065;SDS011;40964;42.114;24.220;2023-03-13T15:40:45;13.13;;;5.32;;
55065;SDS011;40964;42.114;24.220;2023-03-13T15:43:11;19.65;;;9.52;;
55065;SDS011;40964;42.114;24.220;2023-03-13T15:45:38;26.77;;;11.68;;
55065;SDS011;40964;42.114;24.220;2023-03-13T15:48:24;28.83;;;10.95;;
55065;SDS011;40964;42.114;24.220;2023-03-13T15:50:52;27.75;;;11.18;;
55065;SDS011;40964;42.114;24.220;2023-03-13T15:53:28;15.55;;;7.55;;
55065;SDS011;40964;42.114;24.220;2023-03-13T15:55:54;15.13;;;6.85;;
55065;SDS011;40964;42.114;24.220;2023-03-13T15:58:22;13.25;;;6.45;;
55065;SDS011;40964;42.114;24.220;2023-03-13T16:00:48;12.30;;;6.75;;
55065;SDS011;40964;42.114;24.220;2023-03-13T16:03:15;10.73;;;6.00;;
55065;SDS011;40964;42.114;24.220;2023-03-13T16:05:43;7.63;;;4.80;;
55065;SDS011;40964;42.114;24.220;2023-03-13T16:08:14;8.77;;;5.07;;
55065;SDS011;40964;42.114;24.220;2023-03-13T16:10:45;8.38;;;4.70;;
55065;SDS011;40964;42.114;24.220;2023-03-13T16:13:10;14.70;;;5.85;;
55065;SDS011;40964;42.114;24.220;2023-03-13T16:15:36;9.70;;;5.22;;
55065;SDS011;40964;42.114;24.220;2023-03-13T16:18:03;9.27;;;4.47;;
55065;SDS011;40964;42.114;24.220;2023-03-13T16:20:29;11.65;;;4.45;;
55065;SDS011;40964;42.114;24.220;2023-03-13T16:22:55;7.15;;;4.75;;
55065;SDS011;40964;42.114;24.220;2023-03-13T16:25:21;11.95;;;5.68;;
55065;SDS011;40964;42.114;24.220;2023-03-13T16:27:48;10.32;;;4.70;;
55065;SDS011;40964;42.114;24.220;2023-03-13T16:30:17;7.95;;;4.20;;
55065;SDS011;40964;42.114;24.220;2023-03-13T16:32:49;8.32;;;4.30;;
55065;SDS011;40964;42.114;24.220;2023-03-13T16:35:15;10.57;;;5.10;;
55065;SDS011;40964;42.114;24.220;2023-03-13T16:37:41;6.97;;;4.30;;
55065;SDS011;40964;42.114;24.220;2023-03-13T16:40:12;7.63;;;4.55;;
55065;SDS011;40964;42.114;24.220;2023-03-13T16:42:38;6.03;;;4.15;;
55065;SDS011;40964;42.114;24.220;2023-03-13T16:45:04;9.15;;;5.03;;
55065;SDS011;40964;42.114;24.220;2023-03-13T16:47:30;8.77;;;4.88;;
55065;SDS011;40964;42.114;24.220;2023-03-13T16:49:55;8.15;;;4.72;;
55065;SDS011;40964;42.114;24.220;2023-03-13T16:52:21;10.57;;;4.65;;
55065;SDS011;40964;42.114;24.220;2023-03-13T16:54:46;8.07;;;4.85;;
55065;SDS011;40964;42.114;24.220;2023-03-13T16:57:16;11.20;;;5.13;;
55065;SDS011;40964;42.114;24.220;2023-03-13T16:59:43;14.10;;;5.18;;